createdAt,value
2023-01-11T00:00:48.151Z,2.92
2023-01-11T00:03:15.762Z,5.78
2023-01-11T00:05:43.881Z,2.20
2023-01-11T00:08:11.285Z,3.65
2023-01-11T00:10:38.389Z,4.03
2023-01-11T00:13:05.612Z,3.38
2023-01-11T00:15:32.678Z,1.98
2023-01-11T00:17:59.393Z,2.85
2023-01-11T00:20:26.075Z,2.63
2023-01-11T00:22:53.090Z,2.30
2023-01-11T00:25:19.754Z,1.95
2023-01-11T00:27:49.295Z,2.80
2023-01-11T00:32:43.547Z,3.30
2023-01-11T00:35:11.427Z,2.92
2023-01-11T00:37:38.581Z,3.75
2023-01-11T00:40:06.194Z,1.38
2023-01-11T00:42:51.450Z,3.08
2023-01-11T00:45:36.415Z,2.95
2023-01-11T00:48:06.064Z,3.13
2023-01-11T00:53:05.089Z,1.80
2023-01-11T00:55:32.018Z,2.38
2023-01-11T00:57:59.267Z,4.50
2023-01-11T01:00:27.080Z,0.98
2023-01-11T01:02:53.911Z,0.60
2023-01-11T01:05:20.991Z,1.23
2023-01-11T01:07:47.919Z,2.17
2023-01-11T01:10:17.283Z,1.08
2023-01-11T01:13:03.277Z,1.20
2023-01-11T01:15:30.469Z,2.72
2023-01-11T01:17:57.241Z,2.35
2023-01-11T01:20:24.651Z,0.85
2023-01-11T01:22:51.435Z,1.00
2023-01-11T01:25:18.487Z,2.50
2023-01-11T01:27:45.254Z,1.42
2023-01-11T01:30:12.377Z,2.40
2023-01-11T01:32:39.835Z,3.38
2023-01-11T01:35:07.075Z,0.73
2023-01-11T01:37:33.788Z,1.15
2023-01-11T01:40:00.661Z,1.92
2023-01-11T01:42:27.248Z,1.02
2023-01-11T01:45:06.174Z,0.43
2023-01-11T01:47:45.552Z,1.05
2023-01-11T01:50:20.765Z,1.48
2023-01-11T01:52:51.877Z,1.95
2023-01-11T01:55:28.486Z,1.65
2023-01-11T01:57:57.784Z,1.48
2023-01-11T02:00:24.579Z,2.42
2023-01-11T02:02:51.362Z,0.40
2023-01-11T02:05:18.692Z,3.53
2023-01-11T02:07:47.241Z,2.42
2023-01-11T02:10:22.312Z,0.63
2023-01-11T02:12:48.975Z,1.27
2023-01-11T02:15:17.936Z,0.90
2023-01-11T02:17:44.716Z,1.13
2023-01-11T02:20:35.898Z,3.10
2023-01-11T02:23:20.674Z,0.82
2023-01-11T02:26:28.218Z,2.50
2023-01-11T02:29:10.551Z,0.25
2023-01-11T02:32:00.335Z,3.78
2023-01-11T02:34:41.848Z,0.93
2023-01-11T02:37:19.307Z,0.90
2023-01-11T02:39:59.965Z,0.30
2023-01-11T02:42:52.122Z,0.40
2023-01-11T02:45:31.223Z,0.85
2023-01-11T02:48:00.524Z,3.40
2023-01-11T02:50:56.690Z,1.75
2023-01-11T02:53:43.489Z,0.90
2023-01-11T02:56:13.819Z,0.50
2023-01-11T02:58:44.705Z,1.20
2023-01-11T03:01:12.907Z,2.25
2023-01-11T03:03:39.484Z,2.25
2023-01-11T03:06:16.787Z,0.30
2023-01-11T03:09:07.872Z,0.52
2023-01-11T03:12:05.526Z,0.57
2023-01-11T03:14:59.630Z,0.50
2023-01-11T03:17:51.037Z,0.22
2023-01-11T03:20:25.810Z,2.47
2023-01-11T03:22:55.337Z,0.32
2023-01-11T03:25:32.115Z,0.45
2023-01-11T03:28:13.393Z,3.22
2023-01-11T03:30:52.176Z,0.95
2023-01-11T03:33:31.969Z,0.52
2023-01-11T03:36:08.561Z,1.02
2023-01-11T03:38:47.073Z,0.30
2023-01-11T03:41:19.392Z,1.27
2023-01-11T03:43:50.116Z,0.28
2023-01-11T03:46:39.603Z,0.75
2023-01-11T03:51:53.954Z,1.08
2023-01-11T03:54:23.849Z,0.65
2023-01-11T03:57:05.596Z,1.08
2023-01-11T03:59:33.090Z,0.35
2023-01-11T04:02:00.724Z,0.20
2023-01-11T04:04:27.511Z,1.02
2023-01-11T04:06:54.342Z,0.38
2023-01-11T04:09:20.894Z,0.20
2023-01-11T04:11:47.504Z,0.52
2023-01-11T04:14:14.206Z,0.70
2023-01-11T04:16:41.021Z,0.30
2023-01-11T04:19:07.648Z,0.90
2023-01-11T04:21:34.176Z,0.25
2023-01-11T04:24:00.737Z,0.50
2023-01-11T04:26:27.294Z,0.63
2023-01-11T04:28:54.484Z,0.30
2023-01-11T04:31:21.189Z,0.10
2023-01-11T04:33:47.880Z,0.52
2023-01-11T04:36:14.455Z,2.42
2023-01-11T04:38:41.144Z,0.43
2023-01-11T04:41:26.291Z,0.30
2023-01-11T04:43:56.503Z,0.95
2023-01-11T04:46:24.072Z,1.25
2023-01-11T04:48:51.286Z,0.40
2023-01-11T04:51:18.311Z,0.20
2023-01-11T04:53:47.320Z,0.30
2023-01-11T04:56:13.977Z,0.20
2023-01-11T04:58:40.877Z,0.38
2023-01-11T05:01:12.308Z,0.90
2023-01-11T05:03:38.927Z,4.40
2023-01-11T05:06:05.841Z,1.00
2023-01-11T05:08:33.026Z,1.30
2023-01-11T05:11:06.471Z,0.20
2023-01-11T05:13:43.154Z,0.20
2023-01-11T05:16:20.292Z,0.20
2023-01-11T05:18:55.205Z,0.82
2023-01-11T05:21:24.818Z,0.28
2023-01-11T05:26:27.878Z,0.10
2023-01-11T05:28:56.738Z,1.02
2023-01-11T05:31:23.528Z,0.30
2023-01-11T05:33:50.198Z,0.10
2023-01-11T05:36:22.384Z,0.55
2023-01-11T05:38:50.879Z,1.00
2023-01-11T05:41:19.041Z,0.30
2023-01-11T05:44:05.530Z,0.47
2023-01-11T05:46:33.195Z,0.20
2023-01-11T05:49:00.155Z,1.10
2023-01-11T05:51:30.441Z,1.95
2023-01-11T05:53:57.637Z,0.40
2023-01-11T05:56:24.452Z,0.13
2023-01-11T05:58:52.019Z,0.52
2023-01-11T06:01:20.148Z,2.17
2023-01-11T06:03:47.076Z,0.15
2023-01-11T06:06:15.083Z,1.25
2023-01-11T06:08:41.598Z,0.57
2023-01-11T06:11:08.411Z,0.88
2023-01-11T06:13:35.084Z,0.63
2023-01-11T06:16:09.016Z,0.85
2023-01-11T06:18:37.775Z,0.45
2023-01-11T06:21:05.184Z,0.20
2023-01-11T06:23:33.576Z,0.10
2023-01-11T06:26:07.447Z,0.68
2023-01-11T06:28:34.022Z,0.30
2023-01-11T06:31:01.592Z,0.38
2023-01-11T06:33:29.413Z,0.25
2023-01-11T06:35:56.918Z,0.98
2023-01-11T06:38:25.390Z,1.30
2023-01-11T06:40:57.260Z,0.80
2023-01-11T06:43:25.290Z,0.20
2023-01-11T06:45:52.236Z,0.80
2023-01-11T06:48:20.521Z,0.43
2023-01-11T06:50:50.354Z,1.77
2023-01-11T06:53:17.289Z,1.65
2023-01-11T06:55:44.233Z,0.43
2023-01-11T06:58:11.635Z,0.85
2023-01-11T07:00:38.672Z,0.55
2023-01-11T07:03:06.847Z,2.03
2023-01-11T07:05:35.362Z,0.80
2023-01-11T07:08:02.381Z,0.55
2023-01-11T07:10:29.435Z,0.20
2023-01-11T07:12:56.023Z,0.80
2023-01-11T07:15:22.909Z,0.47
2023-01-11T07:17:57.082Z,0.60
2023-01-11T07:20:24.336Z,0.28
2023-01-11T07:22:51.179Z,0.73
2023-01-11T07:25:18.514Z,0.47
2023-01-11T07:27:45.203Z,0.73
2023-01-11T07:30:12.208Z,2.45
2023-01-11T07:32:39.226Z,0.80
2023-01-11T07:35:06.368Z,0.68
2023-01-11T07:37:34.079Z,1.52
2023-01-11T07:40:00.935Z,3.08
2023-01-11T07:42:46.309Z,0.98
2023-01-11T07:45:13.012Z,1.27
2023-01-11T07:47:39.881Z,0.70
2023-01-11T07:50:07.130Z,1.95
2023-01-11T07:52:33.690Z,1.65
2023-01-11T07:55:02.716Z,1.00
2023-01-11T07:57:33.037Z,0.45
2023-01-11T07:59:59.593Z,0.77
2023-01-11T08:02:26.311Z,2.38
2023-01-11T08:04:52.939Z,0.65
2023-01-11T08:07:19.553Z,1.58
2023-01-11T08:09:46.077Z,1.67
2023-01-11T08:12:31.102Z,0.50
2023-01-11T08:14:57.600Z,0.63
2023-01-11T08:17:24.221Z,0.65
2023-01-11T08:19:50.802Z,0.80
2023-01-11T08:22:20.270Z,1.80
2023-01-11T08:24:46.915Z,1.00
2023-01-11T08:27:13.919Z,1.17
2023-01-11T08:29:44.002Z,1.80
2023-01-11T08:32:12.148Z,2.85
2023-01-11T08:34:39.140Z,2.92
2023-01-11T08:37:05.749Z,2.38
2023-01-11T08:39:33.523Z,2.47
2023-01-11T08:42:01.109Z,3.05
2023-01-11T08:44:35.077Z,2.63
2023-01-11T08:47:03.067Z,3.45
2023-01-11T08:49:30.529Z,3.55
2023-01-11T08:51:57.585Z,3.17
2023-01-11T08:54:25.072Z,4.00
2023-01-11T08:56:51.750Z,4.75
2023-01-11T08:59:19.826Z,5.05
2023-01-11T09:01:47.160Z,5.05
2023-01-11T09:04:24.251Z,5.10
2023-01-11T09:06:52.626Z,5.75
2023-01-11T09:09:19.471Z,7.97
2023-01-11T09:11:55.145Z,7.32
2023-01-11T09:14:24.464Z,8.23
2023-01-11T09:16:52.085Z,7.50
2023-01-11T09:19:18.755Z,8.93
2023-01-11T09:21:48.144Z,8.95
2023-01-11T09:24:15.292Z,8.60
2023-01-11T09:26:43.521Z,12.23
2023-01-11T09:29:11.303Z,9.55
2023-01-11T09:31:38.333Z,10.75
2023-01-11T09:34:06.765Z,19.45
2023-01-11T09:36:35.993Z,14.68
2023-01-11T09:39:07.390Z,16.17
2023-01-11T09:41:41.753Z,14.25
2023-01-11T09:44:16.701Z,14.60
2023-01-11T09:46:48.344Z,15.20
2023-01-11T09:49:20.263Z,17.00
2023-01-11T09:51:48.071Z,14.27
2023-01-11T09:54:20.943Z,13.25
2023-01-11T09:57:26.623Z,15.93
2023-01-11T10:00:06.401Z,17.20
2023-01-11T10:02:45.378Z,17.20
2023-01-11T10:05:28.528Z,17.73
2023-01-11T10:18:32.375Z,15.25
2023-01-11T10:18:33.477Z,14.68
2023-01-11T10:20:43.653Z,14.10
2023-01-11T10:23:32.017Z,13.63
2023-01-11T10:26:04.910Z,15.60
2023-01-11T10:28:46.980Z,16.48
2023-01-11T10:31:44.357Z,12.50
2023-01-11T10:34:38.122Z,15.93
2023-01-11T10:37:24.195Z,15.73
2023-01-11T10:39:59.566Z,15.02
2023-01-11T10:42:30.853Z,18.50
2023-01-11T10:45:03.351Z,21.08
2023-01-11T10:47:43.008Z,23.63
2023-01-11T10:50:22.553Z,20.48
2023-01-11T10:58:10.998Z,24.90
2023-01-11T11:00:48.586Z,27.23
2023-01-11T11:03:50.595Z,30.05
2023-01-11T11:07:03.852Z,27.10
2023-01-11T11:09:48.668Z,25.90
2023-01-11T11:12:23.510Z,33.42
2023-01-11T11:15:11.330Z,32.65
2023-01-11T11:17:41.185Z,27.85
2023-01-11T11:20:14.641Z,27.00
2023-01-11T11:22:41.882Z,28.42
2023-01-11T11:25:27.564Z,26.27
2023-01-11T11:28:25.091Z,31.25
2023-01-11T11:30:54.537Z,26.58
2023-01-11T11:33:34.145Z,31.55
2023-01-11T11:39:21.192Z,21.80
2023-01-11T11:41:59.061Z,26.17
2023-01-11T11:44:28.024Z,27.25
2023-01-11T11:47:03.520Z,24.58
2023-01-11T11:49:33.067Z,26.25
2023-01-11T11:54:34.074Z,19.15
2023-01-11T11:57:33.540Z,24.30
2023-01-11T12:02:34.318Z,22.52
2023-01-11T12:05:08.019Z,25.17
2023-01-11T12:07:49.836Z,17.55
2023-01-11T12:10:23.905Z,20.73
2023-01-11T12:12:58.187Z,19.35
2023-01-11T12:15:27.183Z,14.38
2023-01-11T12:17:55.084Z,28.67
2023-01-11T12:20:29.533Z,15.98
2023-01-11T12:23:12.846Z,22.98
2023-01-11T12:26:05.314Z,16.40
2023-01-11T12:28:50.217Z,18.92
2023-01-11T12:35:18.024Z,17.15
2023-01-11T12:38:26.742Z,20.88
2023-01-11T12:41:16.484Z,15.55
2023-01-11T12:43:49.295Z,17.15
2023-01-11T12:46:15.893Z,12.95
2023-01-11T12:48:49.755Z,16.38
2023-01-11T12:51:41.891Z,14.52
2023-01-11T12:54:35.101Z,16.38
2023-01-11T12:57:20.828Z,20.30
2023-01-11T13:00:08.875Z,21.95
2023-01-11T13:03:17.214Z,20.02
2023-01-11T13:05:55.266Z,19.23
2023-01-11T13:08:48.978Z,17.90
2023-01-11T13:11:35.170Z,18.40
2023-01-11T13:14:08.018Z,19.88
2023-01-11T13:16:46.392Z,13.90
2023-01-11T13:19:27.727Z,18.05
2023-01-11T13:21:55.765Z,18.10
2023-01-11T13:24:31.674Z,19.35
2023-01-11T13:27:01.664Z,16.05
2023-01-11T13:29:39.105Z,19.73
2023-01-11T13:32:12.728Z,14.88
2023-01-11T13:34:47.207Z,17.77
2023-01-11T13:37:29.576Z,11.82
2023-01-11T13:40:18.027Z,18.38
2023-01-11T13:42:50.952Z,14.70
2023-01-11T13:45:26.124Z,16.70
2023-01-11T13:48:01.819Z,21.70
2023-01-11T13:50:32.978Z,13.73
2023-01-11T13:53:10.083Z,11.63
2023-01-11T13:55:39.613Z,17.10
2023-01-11T13:58:16.473Z,12.63
2023-01-11T14:00:54.978Z,8.65
2023-01-11T14:03:49.530Z,18.42
2023-01-11T14:06:51.483Z,16.13
2023-01-11T14:09:36.835Z,16.20
2023-01-11T14:12:24.889Z,16.52
2023-01-11T14:15:19.989Z,20.00
2023-01-11T14:18:09.348Z,17.05
2023-01-11T14:20:48.532Z,10.55
2023-01-11T14:23:46.692Z,21.27
2023-01-11T14:26:25.579Z,17.80
2023-01-11T14:28:54.974Z,14.20
2023-01-11T14:31:43.206Z,24.23
2023-01-11T14:34:37.573Z,12.57
2023-01-11T14:37:29.256Z,22.17
2023-01-11T14:40:05.694Z,15.95
2023-01-11T14:42:50.556Z,16.75
2023-01-11T14:45:34.951Z,19.63
2023-01-11T14:48:36.006Z,16.67
2023-01-11T14:51:50.970Z,17.25
2023-01-11T14:54:24.075Z,14.02
2023-01-11T14:56:57.893Z,17.20
2023-01-11T14:59:30.604Z,17.17
2023-01-11T15:02:03.700Z,19.27
2023-01-11T15:04:31.524Z,16.63
2023-01-11T15:06:58.769Z,17.02
2023-01-11T15:09:45.847Z,9.18
2023-01-11T15:12:16.443Z,21.45
2023-01-11T15:14:54.669Z,16.52
2023-01-11T15:17:45.361Z,17.20
2023-01-11T15:20:23.665Z,16.55
2023-01-11T15:23:05.295Z,16.17
2023-01-11T15:25:34.663Z,20.00
2023-01-11T15:28:25.432Z,25.08
2023-01-11T15:30:52.181Z,18.65
2023-01-11T15:33:19.282Z,18.42
2023-01-11T15:36:06.742Z,14.93
2023-01-11T15:38:37.463Z,19.42
2023-01-11T15:41:29.345Z,16.60
2023-01-11T15:44:14.485Z,17.40
2023-01-11T15:46:56.129Z,14.07
2023-01-11T15:49:41.036Z,17.02
2023-01-11T15:52:28.845Z,19.33
2023-01-11T15:55:17.257Z,17.92
2023-01-11T15:58:02.356Z,17.23
2023-01-11T16:00:47.711Z,18.67
2023-01-11T16:03:36.380Z,22.42
2023-01-11T16:06:19.474Z,14.10
2023-01-11T16:09:22.724Z,18.48
2023-01-11T16:12:07.370Z,22.88
2023-01-11T16:15:21.218Z,22.77
2023-01-11T16:17:48.321Z,17.55
2023-01-11T16:20:21.011Z,23.55
2023-01-11T16:23:07.977Z,22.40
2023-01-11T16:25:41.264Z,16.63
2023-01-11T16:28:15.959Z,14.57
2023-01-11T16:30:43.358Z,21.52
2023-01-11T16:33:13.871Z,15.73
2023-01-11T16:35:40.776Z,22.65
2023-01-11T16:38:16.688Z,17.35
2023-01-11T16:40:49.248Z,20.77
2023-01-11T16:43:18.955Z,20.30
2023-01-11T16:48:17.721Z,24.98
2023-01-11T16:50:58.692Z,21.13
2023-01-11T16:53:28.109Z,16.75
2023-01-11T16:56:02.926Z,21.23
2023-01-11T16:58:35.265Z,19.75
2023-01-11T17:01:14.197Z,18.75
2023-01-11T17:03:46.675Z,18.45
2023-01-11T17:06:13.542Z,25.35
2023-01-11T17:08:46.182Z,14.45
2023-01-11T17:11:34.571Z,17.95
2023-01-11T17:14:23.301Z,17.73
2023-01-11T17:16:55.068Z,9.45
2023-01-11T17:19:26.290Z,19.85
2023-01-11T17:22:01.805Z,21.63
2023-01-11T17:24:28.633Z,22.13
2023-01-11T17:26:58.889Z,18.85
2023-01-11T17:29:30.714Z,22.80
2023-01-11T17:32:01.084Z,21.50
2023-01-11T17:34:32.007Z,20.25
2023-01-11T17:37:00.305Z,22.42
2023-01-11T17:39:36.717Z,18.15
2023-01-11T17:42:28.994Z,18.23
2023-01-11T17:45:19.889Z,31.10
2023-01-11T17:47:55.004Z,21.85
2023-01-11T17:50:23.628Z,31.77
2023-01-11T17:52:55.268Z,30.33
2023-01-11T17:55:25.301Z,19.98
2023-01-11T17:58:19.014Z,18.27
2023-01-11T18:01:05.007Z,19.98
2023-01-11T18:03:47.157Z,25.30
2023-01-11T18:06:22.287Z,18.55
2023-01-11T18:08:53.211Z,20.38
2023-01-11T18:11:27.437Z,17.30
2023-01-11T18:13:56.896Z,21.88
2023-01-11T18:16:24.261Z,19.30
2023-01-11T18:18:52.906Z,23.35
2023-01-11T18:21:40.898Z,22.70
2023-01-11T18:24:10.904Z,27.50
2023-01-11T18:26:39.426Z,17.33
2023-01-11T18:29:06.252Z,26.17
2023-01-11T18:31:33.008Z,17.85
2023-01-11T18:34:05.216Z,15.75
2023-01-11T18:36:31.827Z,15.95
2023-01-11T18:38:58.349Z,25.60
2023-01-11T18:41:53.944Z,23.13
2023-01-11T18:44:20.453Z,21.15
2023-01-11T18:46:47.150Z,25.83
2023-01-11T18:49:13.766Z,19.33
2023-01-11T18:51:40.403Z,20.48
2023-01-11T18:54:14.436Z,21.85
2023-01-11T18:56:41.064Z,15.57
2023-01-11T18:59:07.944Z,18.80
2023-01-11T19:01:46.890Z,19.98
2023-01-11T19:04:20.779Z,14.40
2023-01-11T19:06:47.415Z,19.67
2023-01-11T19:09:14.009Z,19.52
2023-01-11T19:11:40.563Z,21.67
2023-01-11T19:14:09.426Z,17.05
2023-01-11T19:16:36.535Z,22.15
2023-01-11T19:19:03.125Z,20.58
2023-01-11T19:21:30.050Z,17.05
2023-01-11T19:23:58.172Z,12.77
2023-01-11T19:26:24.821Z,20.75
2023-01-11T19:28:51.372Z,20.48
2023-01-11T19:31:18.137Z,17.92
2023-01-11T19:33:45.056Z,20.40
2023-01-11T19:36:11.871Z,15.30
2023-01-11T19:38:39.610Z,17.48
2023-01-11T19:41:09.022Z,15.13
2023-01-11T19:43:36.550Z,18.55
2023-01-11T19:46:04.145Z,14.00
2023-01-11T19:48:33.075Z,21.33
2023-01-11T19:51:05.476Z,16.15
2023-01-11T19:53:32.713Z,13.82
2023-01-11T19:56:04.252Z,19.63
2023-01-11T19:58:30.794Z,21.17
2023-01-11T20:00:57.700Z,13.45
2023-01-11T20:03:24.435Z,15.40
2023-01-11T20:05:51.280Z,17.33
2023-01-11T20:08:17.988Z,22.20
2023-01-11T20:10:44.548Z,14.20
2023-01-11T20:13:11.321Z,20.88
2023-01-11T20:15:38.668Z,15.93
2023-01-11T20:18:05.335Z,12.05
2023-01-11T20:20:32.001Z,16.48
2023-01-11T20:22:58.501Z,16.30
2023-01-11T20:25:25.065Z,11.73
2023-01-11T20:27:51.721Z,16.40
2023-01-11T20:30:18.308Z,16.98
2023-01-11T20:32:44.993Z,17.58
2023-01-11T20:35:12.855Z,20.75
2023-01-11T20:37:39.628Z,18.17
2023-01-11T20:40:06.866Z,13.93
2023-01-11T20:42:34.179Z,17.75
2023-01-11T20:45:00.738Z,13.05
2023-01-11T20:47:27.285Z,13.85
2023-01-11T20:49:53.946Z,15.18
2023-01-11T20:52:21.102Z,11.55
2023-01-11T20:54:47.746Z,17.13
2023-01-11T20:57:14.410Z,16.98
2023-01-11T20:59:40.966Z,17.52
2023-01-11T21:02:07.709Z,14.40
2023-01-11T21:04:35.644Z,17.95
2023-01-11T21:07:02.625Z,14.45
2023-01-11T21:09:29.251Z,23.85
2023-01-11T21:11:55.818Z,14.80
2023-01-11T21:14:23.314Z,15.82
2023-01-11T21:16:50.121Z,18.15
2023-01-11T21:19:16.693Z,14.88
2023-01-11T21:21:43.630Z,17.00
2023-01-11T21:24:13.004Z,15.70
2023-01-11T21:26:41.940Z,12.23
2023-01-11T21:29:10.284Z,20.55
2023-01-11T21:31:37.902Z,11.90
2023-01-11T21:34:04.867Z,15.95
2023-01-11T21:36:32.114Z,14.95
2023-01-11T21:38:59.814Z,13.65
2023-01-11T21:41:47.154Z,14.65
2023-01-11T21:44:15.242Z,16.92
2023-01-11T21:46:42.951Z,13.45
2023-01-11T21:49:10.668Z,21.33
2023-01-11T21:51:37.701Z,15.07
2023-01-11T21:54:07.374Z,14.90
2023-01-11T21:59:01.338Z,12.68
2023-01-11T22:01:29.771Z,12.52
2023-01-11T22:03:56.751Z,12.23
2023-01-11T22:06:23.633Z,19.35
2023-01-11T22:08:50.331Z,20.88
2023-01-11T22:11:17.616Z,19.17
2023-01-11T22:13:44.602Z,16.15
2023-01-11T22:16:13.917Z,17.52
2023-01-11T22:18:41.266Z,20.55
2023-01-11T22:21:17.738Z,14.68
2023-01-11T22:23:46.087Z,16.40
2023-01-11T22:26:15.440Z,20.10
2023-01-11T22:29:01.268Z,15.23
2023-01-11T22:31:29.671Z,18.00
2023-01-11T22:33:57.504Z,20.08
2023-01-11T22:36:25.521Z,23.33
2023-01-11T22:38:53.203Z,15.95
2023-01-11T22:41:20.379Z,18.35
2023-01-11T22:43:47.723Z,17.17
2023-01-11T22:46:16.733Z,20.02
2023-01-11T22:48:46.826Z,20.08
2023-01-11T22:51:15.444Z,16.40
2023-01-11T22:53:44.320Z,21.10
2023-01-11T22:56:12.330Z,17.65
2023-01-11T22:58:38.900Z,16.67
2023-01-11T23:01:14.732Z,14.98
2023-01-11T23:03:42.128Z,21.20
2023-01-11T23:06:09.487Z,12.95
2023-01-11T23:08:44.045Z,12.90
2023-01-11T23:11:37.952Z,12.95
2023-01-11T23:14:07.008Z,11.45
2023-01-11T23:16:34.182Z,15.75
2023-01-11T23:19:01.013Z,10.40
2023-01-11T23:21:28.016Z,9.57
2023-01-11T23:23:54.780Z,15.68
2023-01-11T23:26:21.983Z,13.20
2023-01-11T23:28:50.155Z,14.13
2023-01-11T23:31:19.595Z,14.25
2023-01-11T23:33:59.964Z,17.83
2023-01-11T23:36:29.896Z,14.65
2023-01-11T23:38:57.178Z,13.35
2023-01-11T23:41:43.032Z,18.50
2023-01-11T23:44:12.219Z,16.45
2023-01-11T23:46:58.396Z,13.63
2023-01-11T23:49:25.652Z,11.85
2023-01-11T23:51:53.012Z,22.17
2023-01-11T23:54:19.630Z,10.07
2023-01-11T23:56:46.276Z,16.60
2023-01-11T23:59:13.258Z,11.82
